Карточка аэропорта UUBW

Внимание!
Информация на этой странице в стадии наполнения.
Если вы не увидели какой-то информации, или заметили неточность - пожалуйста сообщите нам!
Спасибо!
Команда RU-STAFF
Название аэропортаЖуковский
Название аэропорта (англ.)Zhukovsky
Превышение1325 ft. (403.9 m.)
Координаты55°33.168', 38°8.9820000000002'
Высота перехода10000 ft
Эшелон переходаQNH>=1013hPa:FL110; QNH<1013hPa:FL120; QNH<977hPa:FL130
Коды ответчика
Зона ОрВДМосква РПИ (UUWV)
Данные METARUUBW 231100Z 13006MPS 9999 OVC011 M00/M02 Q1022 R30/520240 NOSIG RMK QFE756
Проноз погоды (TAF)UUBW 230757Z 2309/2409 12005MPS 6000 -SN BKN010 TX00/2315Z TNM02/2309Z TEMPO 2309/2312 1500 FZDZ SN BR OVC004 TEMPO 2312/2409 14008G13MPS 2000 BR OVC003
NOTAMshow/hide NOTAM
AWOS   TABLE

Информация о ВПП

ВПП Длина ВПП (м.) Покрытие Курс ВПП Частота ILS
124600Цементобетон121 
304600Цементобетон301 

Диспетчерские позиции


Сценарии

Сценарий
Нет результатов.


Спутниковое изображение